Aviation Digital Data Service (ADDS)

Output produced by METARs form (1705 UTC 27 April 2015)
found at http://aviationweather.gov/adds/metars/
 
KMPV 271131Z 2712/2812 32007KT P6SM VCSH SCT009 BKN015 OVC025 
     TEMPO 2712/2714 6SM -SHRA BR BKN009 
     FM271700 33008KT 6SM -SHRA BR BKN028 OVC040 
     FM272200 32007KT P6SM OVC035 
     FM280100 32006KT P6SM BKN035 OVC050